Time;durP1;ratioP1;P1;durP2;ratioP2;P2;SDS_P1;SDS_P2;PMS_P1;PMS_P2;Temp;Humidity;BMP_temperature;BMP_pressure;BME280_temperature;BME280_humidity;BME280_pressure;Samples;Min_cycle;Max_cycle;Signal;HPM_P1;HPM_P2
2023/03/13 00:00:55;;;;;;;10.55;4.25;;;;;;;7.41;59.61;99985.34;4435789;32;20159;-87
2023/03/13 00:03:21;;;;;;;9.05;4.35;;;;;;;7.63;59.62;99978.94;4427013;32;20154;-89
2023/03/13 00:05:46;;;;;;;9.52;4.50;;;;;;;7.35;59.60;99974.22;4408364;32;20086;-89
2023/03/13 00:08:12;;;;;;;12.75;4.50;;;;;;;7.53;59.60;99978.22;4404886;32;20135;-89
2023/03/13 00:10:38;;;;;;;10.40;4.43;;;;;;;7.63;59.62;99972.03;4408867;32;20114;-89
2023/03/13 00:13:04;;;;;;;10.82;5.05;;;;;;;7.70;59.62;99980.53;4422875;32;20086;-89
2023/03/13 00:15:29;;;;;;;9.60;5.00;;;;;;;7.65;59.62;99972.84;4434117;32;20928;-90
2023/03/13 00:17:54;;;;;;;9.43;4.85;;;;;;;7.86;59.63;99968.19;4408601;32;20369;-90
2023/03/13 00:20:20;;;;;;;8.40;4.45;;;;;;;7.93;59.64;99964.59;4436264;32;20148;-91
2023/03/13 00:22:45;;;;;;;9.25;4.37;;;;;;;7.77;59.63;99960.56;4424974;32;20127;-91
2023/03/13 00:25:11;;;;;;;8.70;4.95;;;;;;;7.73;59.62;99959.75;4410197;32;20169;-90
2023/03/13 00:27:36;;;;;;;8.13;4.22;;;;;;;7.70;59.62;99965.84;4397465;32;20439;-89
2023/03/13 00:30:01;;;;;;;8.93;4.50;;;;;;;7.67;59.62;99960.72;4410220;32;20145;-90
2023/03/13 00:32:27;;;;;;;8.50;4.30;;;;;;;7.89;59.63;99960.38;4410026;32;20138;-89
2023/03/13 00:34:52;;;;;;;8.98;5.10;;;;;;;7.73;59.62;99961.50;4410006;32;20482;-89
2023/03/13 00:37:18;;;;;;;14.65;4.90;;;;;;;7.65;59.62;99961.63;4430813;32;20089;-89
2023/03/13 00:39:43;;;;;;;9.45;5.15;;;;;;;7.72;59.62;99960.66;4424428;32;20098;-89
2023/03/13 00:42:09;;;;;;;8.68;4.50;;;;;;;7.93;59.63;99949.91;4410022;32;20706;-89
2023/03/13 00:44:34;;;;;;;6.12;4.15;;;;;;;7.83;59.63;99952.72;4409456;32;20093;-88
2023/03/13 00:47:00;;;;;;;7.87;4.85;;;;;;;7.97;59.63;99946.38;4397424;32;20619;-90
2023/03/13 00:49:25;;;;;;;7.47;4.15;;;;;;;7.83;59.63;99950.13;4408206;32;20102;-90
2023/03/13 00:51:51;;;;;;;9.70;4.37;;;;;;;7.89;59.64;99950.84;4409610;32;20145;-90
2023/03/13 00:54:16;;;;;;;10.63;4.70;;;;;;;7.73;59.62;99949.41;4436548;32;20085;-90
2023/03/13 00:56:41;;;;;;;10.43;4.53;;;;;;;8.05;59.63;99932.44;4425106;32;20152;-90
2023/03/13 00:59:07;;;;;;;7.10;4.40;;;;;;;7.94;59.64;99938.66;4424042;32;20145;-90
2023/03/13 01:01:34;;;;;;;10.45;5.03;;;;;;;7.89;59.63;99937.03;4409998;32;20176;-90
2023/03/13 01:04:01;;;;;;;10.23;4.55;;;;;;;7.74;59.62;99929.53;4422667;32;20093;-91
2023/03/13 01:06:28;;;;;;;10.93;5.28;;;;;;;7.72;59.62;99936.47;4404227;32;20447;-90
2023/03/13 01:08:53;;;;;;;8.35;4.47;;;;;;;7.80;59.63;99929.41;4424486;32;20110;-90
2023/03/13 01:11:23;;;;;;;8.65;4.87;;;;;;;7.85;59.63;99923.28;4425138;32;20348;-89
2023/03/13 01:13:49;;;;;;;8.65;4.85;;;;;;;7.65;59.62;99920.19;4412595;32;20102;-90
2023/03/13 01:16:15;;;;;;;8.20;5.03;;;;;;;7.67;59.62;99924.47;4422367;32;20138;-89
2023/03/13 01:18:43;;;;;;;9.88;4.07;;;;;;;7.84;59.63;99908.63;4422727;32;20528;-90
2023/03/13 01:21:08;;;;;;;11.12;4.47;;;;;;;7.85;59.63;99922.44;4422348;32;20175;-88
2023/03/13 01:23:34;;;;;;;8.07;4.82;;;;;;;7.78;59.62;99918.22;4422734;32;20097;-89
2023/03/13 01:25:59;;;;;;;10.10;4.65;;;;;;;7.81;59.63;99921.62;4422517;32;20120;-89
2023/03/13 01:28:25;;;;;;;10.27;5.22;;;;;;;7.96;59.64;99904.94;4428709;32;20475;-88
2023/03/13 01:30:50;;;;;;;9.02;4.45;;;;;;;8.09;59.65;99900.38;4436783;32;20486;-88
2023/03/13 01:33:15;;;;;;;11.90;4.18;;;;;;;8.00;59.64;99911.75;4415947;32;20105;-88
2023/03/13 01:35:41;;;;;;;11.55;4.30;;;;;;;7.87;59.63;99902.53;4430887;32;20093;-90
2023/03/13 01:38:07;;;;;;;11.52;5.45;;;;;;;7.96;59.63;99898.00;4434394;32;20133;-89
2023/03/13 01:40:40;;;;;;;10.00;4.75;;;;;;;7.86;59.64;99893.91;4411804;32;20101;-90
2023/03/13 01:43:33;;;;;;;7.30;4.12;;;;;;;7.96;59.63;99887.63;4422535;32;20134;-90
2023/03/13 01:46:23;;;;;;;8.18;4.57;;;;;;;7.90;59.62;99894.69;4408898;32;20110;-89
2023/03/13 01:49:09;;;;;;;10.25;4.03;;;;;;;7.74;59.62;99893.25;4412124;32;20110;-90
2023/03/13 01:51:39;;;;;;;8.50;4.32;;;;;;;7.92;59.64;99890.31;4425759;32;20101;-89
2023/03/13 01:54:17;;;;;;;9.00;4.03;;;;;;;7.81;59.63;99893.13;4435867;32;20098;-91
2023/03/13 01:56:47;;;;;;;8.15;4.72;;;;;;;8.19;59.64;99892.38;4419941;32;20155;-92
2023/03/13 01:59:14;;;;;;;6.85;3.67;;;;;;;7.95;59.63;99895.44;4428787;32;20127;-91
2023/03/13 02:01:41;;;;;;;8.32;4.15;;;;;;;8.16;59.65;99897.62;4426559;32;20113;-92
2023/03/13 02:04:06;;;;;;;11.00;4.68;;;;;;;8.07;59.64;99892.63;4423925;32;20482;-91
2023/03/13 02:06:32;;;;;;;9.75;4.28;;;;;;;7.89;59.63;99878.28;4399922;32;20120;-91
2023/03/13 02:09:00;;;;;;;9.20;3.90;;;;;;;7.94;59.63;99883.38;4413580;32;20121;-92
2023/03/13 02:11:53;;;;;;;7.93;3.72;;;;;;;8.19;59.65;99881.16;4414418;32;20100;-91
2023/03/13 02:14:20;;;;;;;8.93;4.68;;;;;;;8.11;59.64;99889.09;4400604;32;20090;-92
2023/03/13 02:16:47;;;;;;;6.62;3.62;;;;;;;8.04;59.63;99881.44;4409556;32;20115;-91
2023/03/13 02:19:35;;;;;;;7.40;3.85;;;;;;;8.35;59.65;99874.81;4414629;32;20093;-91
2023/03/13 02:22:15;;;;;;;6.82;3.62;;;;;;;8.07;59.64;99882.25;4427077;32;20132;-91
2023/03/13 02:25:18;;;;;;;10.93;4.90;;;;;;;8.13;59.64;99878.69;4422510;32;20497;-91
2023/03/13 02:27:51;;;;;;;8.55;4.65;;;;;;;8.00;59.64;99873.72;4436423;32;20106;-90
2023/03/13 02:30:20;;;;;;;8.05;3.87;;;;;;;8.00;59.64;99873.72;4442387;32;20136;-90
2023/03/13 02:32:48;;;;;;;6.47;3.50;;;;;;;7.98;59.63;99880.69;4442094;32;20096;-90
2023/03/13 02:35:15;;;;;;;7.28;4.28;;;;;;;8.08;59.64;99883.97;4422391;32;20124;-91
2023/03/13 02:37:41;;;;;;;8.57;4.00;;;;;;;8.05;59.63;99884.03;4400581;32;20098;-90
2023/03/13 02:40:11;;;;;;;10.13;4.43;;;;;;;8.15;59.65;99890.72;4424887;32;20117;-90
2023/03/13 02:42:43;;;;;;;8.18;4.22;;;;;;;8.02;59.63;99884.91;4410220;32;20097;-90
2023/03/13 02:45:12;;;;;;;11.45;4.85;;;;;;;8.07;59.63;99886.59;4407621;32;20085;-89
2023/03/13 02:47:40;;;;;;;10.90;4.28;;;;;;;8.07;59.64;99877.09;4438734;32;20093;-90
2023/03/13 02:50:05;;;;;;;10.32;4.87;;;;;;;8.11;59.64;99877.88;4419447;32;20137;-90
2023/03/13 02:52:36;;;;;;;9.70;4.97;;;;;;;7.98;59.62;99883.28;4434242;32;20190;-88
2023/03/13 02:55:05;;;;;;;12.25;4.87;;;;;;;7.95;59.63;99887.66;4425159;32;20093;-90
2023/03/13 02:57:30;;;;;;;6.53;4.15;;;;;;;7.92;59.63;99888.59;4424787;32;20124;-90
2023/03/13 02:59:56;;;;;;;7.87;3.95;;;;;;;7.98;59.63;99891.06;4426319;32;20122;-89
2023/03/13 03:02:21;;;;;;;8.73;4.47;;;;;;;7.82;59.63;99899.16;4438327;32;20113;-90
2023/03/13 03:04:47;;;;;;;6.15;4.15;;;;;;;7.80;59.63;99900.91;4425141;32;20127;-88
2023/03/13 03:07:12;;;;;;;8.35;5.00;;;;;;;7.86;59.63;99901.66;4424283;32;21340;-90
2023/03/13 03:09:40;;;;;;;6.57;4.28;;;;;;;7.77;59.62;99901.81;4424968;32;20136;-87
2023/03/13 03:12:11;;;;;;;8.63;3.83;;;;;;;7.77;59.63;99900.97;4438761;32;20526;-90
2023/03/13 03:14:36;;;;;;;6.82;3.97;;;;;;;7.80;59.63;99899.16;4440849;32;20158;-90
2023/03/13 03:17:04;;;;;;;9.32;3.67;;;;;;;8.10;59.64;99896.91;4440682;32;20117;-91
2023/03/13 03:19:33;;;;;;;5.80;4.10;;;;;;;8.13;59.64;99881.28;4418559;32;20123;-91
2023/03/13 03:22:01;;;;;;;7.57;4.15;;;;;;;8.16;59.65;99887.25;4414005;32;20062;-89
2023/03/13 03:24:27;;;;;;;7.05;4.15;;;;;;;7.97;59.63;99891.94;4407856;32;20081;-90
2023/03/13 03:27:09;;;;;;;8.50;4.32;;;;;;;7.89;59.63;99891.25;4412887;32;20104;-90
2023/03/13 03:29:34;;;;;;;10.27;4.45;;;;;;;7.79;59.62;99896.59;4425851;32;20065;-89
2023/03/13 03:32:03;;;;;;;6.70;3.70;;;;;;;7.69;59.61;99901.13;4424618;32;20196;-89
2023/03/13 03:34:29;;;;;;;8.57;4.05;;;;;;;7.73;59.62;99900.16;4400168;32;20093;-90
2023/03/13 03:36:59;;;;;;;7.12;4.20;;;;;;;7.48;59.61;99899.75;4427750;32;20462;-89
2023/03/13 03:39:25;;;;;;;7.68;4.65;;;;;;;7.38;59.60;99893.03;4425129;32;20101;-90
2023/03/13 03:41:50;;;;;;;8.00;4.57;;;;;;;7.38;59.60;99890.44;4400031;32;20181;-89
2023/03/13 03:44:19;;;;;;;7.82;4.20;;;;;;;7.51;59.61;99894.50;4435258;32;20144;-89
2023/03/13 03:46:45;;;;;;;8.73;4.72;;;;;;;7.35;59.60;99890.50;4431839;32;20090;-88
2023/03/13 03:49:16;;;;;;;9.15;4.57;;;;;;;7.23;59.59;99896.72;4439143;32;20093;-89
2023/03/13 03:51:45;;;;;;;8.43;4.18;;;;;;;7.11;59.59;99901.25;4426612;32;20092;-86
2023/03/13 03:54:11;;;;;;;11.77;5.50;;;;;;;6.80;59.56;99903.41;4424437;32;20089;-88
2023/03/13 03:56:40;;;;;;;14.18;5.07;;;;;;;6.72;59.57;99912.13;4403022;32;20120;-91
2023/03/13 03:59:05;;;;;;;11.73;5.43;;;;;;;6.75;59.56;99919.84;4424723;32;20102;-89
2023/03/13 04:01:31;;;;;;;8.15;4.68;;;;;;;6.84;59.57;99926.63;4412355;32;20140;-91
2023/03/13 04:03:56;;;;;;;9.40;5.22;;;;;;;6.83;59.57;99926.66;4401757;32;20192;-92
2023/03/13 04:06:22;;;;;;;10.73;5.12;;;;;;;6.83;59.57;99922.31;4401150;32;20145;-93
2023/03/13 04:08:48;;;;;;;7.45;4.70;;;;;;;6.89;59.57;99927.44;4414475;32;20221;-90
2023/03/13 04:11:13;;;;;;;12.07;5.15;;;;;;;6.89;59.57;99935.19;4428945;32;20274;-91
2023/03/13 04:13:39;;;;;;;9.32;5.12;;;;;;;7.02;59.57;99933.28;4425287;32;20871;-90
2023/03/13 04:16:13;;;;;;;13.73;5.93;;;;;;;6.96;59.58;99923.03;4413885;32;20133;-92
2023/03/13 04:18:42;;;;;;;10.45;5.18;;;;;;;7.12;59.59;99926.25;4412311;32;20144;-95
2023/03/13 04:21:07;;;;;;;10.77;4.07;;;;;;;7.26;59.59;99929.47;4434855;32;20074;-93
2023/03/13 04:23:33;;;;;;;8.85;4.07;;;;;;;7.03;59.59;99928.06;4421864;32;20153;-92
2023/03/13 04:25:58;;;;;;;13.65;4.37;;;;;;;6.89;59.58;99930.03;4433606;32;20093;-92
2023/03/13 04:28:23;;;;;;;9.88;4.72;;;;;;;7.06;59.58;99935.78;4416027;32;20126;-91
2023/03/13 04:30:49;;;;;;;7.65;4.55;;;;;;;7.18;59.60;99939.94;4410001;32;23362;-90
2023/03/13 04:33:14;;;;;;;6.57;3.97;;;;;;;7.16;59.60;99939.13;4411718;32;20115;-90
2023/03/13 04:35:40;;;;;;;12.95;4.40;;;;;;;6.99;59.58;99949.72;4418017;32;20161;-92
2023/03/13 04:38:05;;;;;;;8.60;4.47;;;;;;;6.95;59.58;99945.47;4423618;32;20448;-90
2023/03/13 04:40:35;;;;;;;7.60;4.12;;;;;;;7.14;59.59;99951.22;4411828;32;20169;-92
2023/03/13 04:43:01;;;;;;;9.27;4.72;;;;;;;7.00;59.58;99943.66;4433155;32;20144;-91
2023/03/13 04:45:27;;;;;;;7.62;4.55;;;;;;;7.22;59.59;99927.81;4420471;32;20415;-90
2023/03/13 04:47:52;;;;;;;8.02;4.47;;;;;;;7.12;59.59;99929.69;4418895;32;20735;-89
2023/03/13 04:50:18;;;;;;;10.25;3.95;;;;;;;7.20;59.59;99919.22;4402319;32;20149;-89
2023/03/13 04:52:43;;;;;;;11.65;4.53;;;;;;;7.39;59.61;99923.22;4421150;32;20098;-89
2023/03/13 04:55:08;;;;;;;9.13;4.37;;;;;;;7.34;59.60;99933.66;4421775;32;20112;-88
2023/03/13 04:57:34;;;;;;;10.05;4.25;;;;;;;7.08;59.58;99948.72;4395946;32;20710;-89
2023/03/13 04:59:59;;;;;;;13.73;5.70;;;;;;;7.28;59.59;99951.84;4408673;32;20117;-89
2023/03/13 05:02:25;;;;;;;9.82;4.80;;;;;;;7.24;59.59;99959.69;4433937;32;20104;-88
2023/03/13 05:04:50;;;;;;;8.25;4.20;;;;;;;7.16;59.58;99956.37;4436916;32;20190;-89
2023/03/13 05:07:15;;;;;;;10.63;4.47;;;;;;;7.30;59.60;99955.28;4427022;32;20361;-89
2023/03/13 05:09:41;;;;;;;8.23;4.32;;;;;;;7.20;59.59;99952.88;4439163;32;20537;-89
2023/03/13 05:12:06;;;;;;;11.32;4.57;;;;;;;7.20;59.59;99947.69;4425962;32;23385;-89
2023/03/13 05:14:32;;;;;;;9.70;4.45;;;;;;;7.25;59.60;99945.88;4432477;32;20114;-88
2023/03/13 05:16:58;;;;;;;6.20;3.90;;;;;;;7.45;59.60;99940.37;4423853;32;20499;-90
2023/03/13 05:19:23;;;;;;;9.02;4.35;;;;;;;7.24;59.59;99957.09;4424209;32;20118;-86
2023/03/13 05:21:48;;;;;;;11.00;4.65;;;;;;;7.38;59.59;99961.22;4423333;32;20137;-89
2023/03/13 05:24:14;;;;;;;9.48;4.30;;;;;;;7.44;59.60;99952.47;4415953;32;20145;-89
2023/03/13 05:26:39;;;;;;;10.00;4.62;;;;;;;7.40;59.60;99963.78;4423621;32;20405;-89
2023/03/13 05:29:05;;;;;;;8.32;4.25;;;;;;;7.31;59.59;99961.31;4410916;32;20098;-89
2023/03/13 05:31:30;;;;;;;9.75;4.95;;;;;;;7.41;59.60;99968.06;4408259;32;20225;-88
2023/03/13 05:33:55;;;;;;;8.88;4.50;;;;;;;7.37;59.60;99969.84;4431421;32;20090;-89
2023/03/13 05:36:21;;;;;;;11.35;4.97;;;;;;;7.47;59.61;99969.69;4438572;32;20438;-89
2023/03/13 05:38:46;;;;;;;11.50;4.55;;;;;;;7.51;59.61;99966.19;4424179;32;20153;-89
2023/03/13 05:41:12;;;;;;;11.25;5.15;;;;;;;7.62;59.62;99962.56;4421114;32;20123;-88
2023/03/13 05:43:37;;;;;;;13.73;5.55;;;;;;;7.46;59.61;99976.63;4430025;32;20248;-89
2023/03/13 05:46:03;;;;;;;9.63;4.85;;;;;;;7.59;59.61;99972.13;4407628;32;20469;-89
2023/03/13 05:48:28;;;;;;;10.57;5.60;;;;;;;7.64;59.62;99959.94;4425070;32;20117;-90
2023/03/13 05:50:54;;;;;;;8.98;4.85;;;;;;;7.54;59.61;99972.16;4422563;32;20111;-93
2023/03/13 05:53:19;;;;;;;8.88;4.62;;;;;;;7.92;59.64;99965.50;4399888;32;20166;-87
2023/03/13 05:55:45;;;;;;;8.15;4.43;;;;;;;7.78;59.62;99970.03;4421224;32;20191;-87
2023/03/13 05:58:10;;;;;;;9.93;4.37;;;;;;;7.61;59.61;99975.53;4422840;32;20106;-87
2023/03/13 06:00:36;;;;;;;7.68;4.93;;;;;;;7.72;59.62;99976.19;4434797;32;20137;-87
2023/03/13 06:03:01;;;;;;;11.77;4.60;;;;;;;7.76;59.62;99971.81;4416725;32;20173;-87
2023/03/13 06:05:26;;;;;;;7.12;4.03;;;;;;;7.79;59.62;99971.75;4436283;32;20457;-87
2023/03/13 06:07:52;;;;;;;10.23;4.25;;;;;;;7.99;59.64;99973.13;4424110;32;20097;-87
2023/03/13 06:10:17;;;;;;;9.25;3.78;;;;;;;8.05;59.64;99966.12;4420287;32;20180;-87
2023/03/13 06:12:43;;;;;;;8.70;4.50;;;;;;;8.10;59.64;99966.91;4397640;32;20151;-86
2023/03/13 06:15:17;;;;;;;13.35;5.22;;;;;;;8.00;59.64;99961.00;4397922;32;21638;-86
2023/03/13 06:17:43;;;;;;;13.18;4.10;;;;;;;8.18;59.64;99954.63;4430702;32;20140;-86
2023/03/13 06:20:09;;;;;;;9.68;4.22;;;;;;;8.09;59.64;99954.81;4419596;32;20094;-86
2023/03/13 06:22:34;;;;;;;7.05;3.90;;;;;;;8.19;59.64;99954.59;4435124;32;20470;-85
2023/03/13 06:25:00;;;;;;;12.73;4.28;;;;;;;8.23;59.65;99964.03;4420175;32;20086;-87
2023/03/13 06:27:25;;;;;;;7.20;4.20;;;;;;;8.23;59.65;99964.03;4422577;32;20552;-87
2023/03/13 06:29:50;;;;;;;8.45;4.25;;;;;;;8.41;59.66;99960.28;4406790;32;20134;-87
2023/03/13 06:32:17;;;;;;;9.23;4.47;;;;;;;8.67;59.67;99945.91;4422350;32;20133;-87
2023/03/13 06:34:42;;;;;;;8.15;3.58;;;;;;;8.64;59.67;99944.22;4422776;32;20130;-86
2023/03/13 06:37:08;;;;;;;7.75;4.05;;;;;;;8.83;59.68;99949.88;4414038;32;20374;-87
2023/03/13 06:39:33;;;;;;;7.50;4.32;;;;;;;8.99;59.69;99948.69;4409697;32;20144;-86
2023/03/13 06:41:59;;;;;;;7.00;3.80;;;;;;;9.00;59.69;99958.16;4435346;32;20098;-86
2023/03/13 06:44:24;;;;;;;7.45;4.12;;;;;;;8.99;59.69;99951.28;4432620;32;20141;-86
2023/03/13 06:46:50;;;;;;;7.10;3.85;;;;;;;9.09;59.69;99957.94;4423158;32;20147;-86
2023/03/13 06:49:15;;;;;;;7.18;3.95;;;;;;;9.21;59.70;99959.41;4422003;32;20108;-86
2023/03/13 06:51:40;;;;;;;6.47;3.55;;;;;;;9.34;59.71;99958.25;4422461;32;20117;-87
2023/03/13 06:54:06;;;;;;;8.60;3.72;;;;;;;9.53;59.72;99953.47;4421182;32;20123;-86
2023/03/13 06:56:31;;;;;;;13.18;5.12;;;;;;;9.42;59.73;99958.91;4438636;32;20119;-87
2023/03/13 06:58:57;;;;;;;7.32;3.35;;;;;;;9.51;59.72;99955.25;4422919;32;20085;-87
2023/03/13 07:01:22;;;;;;;7.05;3.12;;;;;;;9.64;59.73;99953.19;4424247;32;20372;-87
2023/03/13 07:03:48;;;;;;;5.37;3.03;;;;;;;9.76;59.73;99953.75;4432412;32;20378;-87
2023/03/13 07:06:13;;;;;;;5.85;2.83;;;;;;;9.69;59.72;99946.97;4436316;32;20143;-86
2023/03/13 07:08:39;;;;;;;5.93;3.37;;;;;;;9.79;59.74;99952.81;4420144;32;20420;-87
2023/03/13 07:11:06;;;;;;;10.68;3.72;;;;;;;9.75;59.73;99944.25;4426785;32;20078;-87
2023/03/13 07:13:31;;;;;;;10.23;3.83;;;;;;;9.90;59.74;99944.72;4434586;32;20097;-86
2023/03/13 07:16:03;;;;;;;7.40;3.45;;;;;;;9.89;59.74;99948.22;4439625;32;20119;-86
2023/03/13 07:18:28;;;;;;;5.82;3.50;;;;;;;9.94;59.75;99938.56;4424896;32;20097;-87
2023/03/13 07:20:54;;;;;;;12.32;3.87;;;;;;;9.92;59.74;99941.19;4431004;32;20069;-87
2023/03/13 07:23:20;;;;;;;7.78;3.28;;;;;;;10.19;59.76;99942.22;4409893;32;20575;-87
2023/03/13 07:25:54;;;;;;;5.95;3.30;;;;;;;10.25;59.77;99936.88;4430788;32;20124;-87
2023/03/13 07:28:20;;;;;;;5.50;3.12;;;;;;;10.22;59.76;99934.34;4422743;32;20108;-87
2023/03/13 07:30:45;;;;;;;7.20;3.42;;;;;;;10.31;59.76;99930.63;4417384;32;20124;-87
2023/03/13 07:33:11;;;;;;;9.25;3.67;;;;;;;10.40;59.77;99932.97;4427266;32;20136;-87
2023/03/13 07:35:36;;;;;;;7.70;3.70;;;;;;;10.43;59.77;99932.91;4430996;32;20105;-86
2023/03/13 07:38:01;;;;;;;6.10;3.30;;;;;;;10.58;59.78;99934.19;4423954;32;20090;-87
2023/03/13 07:40:27;;;;;;;5.55;3.00;;;;;;;10.51;59.78;99925.72;4430228;32;20180;-87
2023/03/13 07:42:52;;;;;;;7.12;3.22;;;;;;;10.60;59.78;99927.19;4426947;32;20117;-87
2023/03/13 07:45:18;;;;;;;6.45;3.55;;;;;;;10.68;59.78;99922.63;4422541;32;20120;-87
2023/03/13 07:47:43;;;;;;;9.18;3.47;;;;;;;10.66;59.78;99919.22;4432440;32;20173;-87
2023/03/13 07:50:09;;;;;;;5.18;3.40;;;;;;;10.73;59.79;99919.00;4422623;32;20082;-87
2023/03/13 07:52:34;;;;;;;7.22;3.40;;;;;;;10.85;59.79;99917.75;4432676;32;20098;-88
2023/03/13 07:55:00;;;;;;;7.05;3.50;;;;;;;10.92;59.80;99906.28;4427004;32;20176;-88
2023/03/13 07:57:25;;;;;;;7.78;3.12;;;;;;;11.04;59.80;99903.28;4432445;32;20391;-87
2023/03/13 07:59:51;;;;;;;6.75;2.95;;;;;;;10.95;59.79;99906.16;4422465;32;20520;-87
2023/03/13 08:02:16;;;;;;;6.05;3.08;;;;;;;11.23;59.82;99892.28;4422616;32;20123;-87
2023/03/13 08:04:42;;;;;;;6.93;3.28;;;;;;;11.06;59.80;99898.84;4423582;32;20097;-87
2023/03/13 08:07:10;;;;;;;6.70;2.70;;;;;;;11.08;59.81;99893.59;4421601;32;20447;-87
2023/03/13 08:09:36;;;;;;;6.78;2.95;;;;;;;11.26;59.82;99886.94;4437778;32;20093;-87
2023/03/13 08:12:01;;;;;;;6.62;2.80;;;;;;;11.33;59.82;99884.09;4435305;32;20209;-87
2023/03/13 08:14:27;;;;;;;7.30;4.30;;;;;;;11.37;59.83;99884.88;4416627;32;20169;-87
2023/03/13 08:16:52;;;;;;;4.35;2.65;;;;;;;11.47;59.83;99880.19;4435575;32;20094;-87
2023/03/13 08:19:18;;;;;;;4.15;2.85;;;;;;;11.51;59.83;99868.75;4434846;32;20340;-88
2023/03/13 08:21:43;;;;;;;5.90;2.90;;;;;;;11.49;59.83;99858.38;4422290;32;20537;-88
2023/03/13 08:24:10;;;;;;;4.53;2.65;;;;;;;11.54;59.83;99853.00;4421884;32;20102;-87
2023/03/13 08:26:36;;;;;;;5.70;2.65;;;;;;;11.54;59.84;99850.38;4423580;32;20090;-87
2023/03/13 08:29:04;;;;;;;6.15;2.87;;;;;;;11.65;59.83;99851.75;4423616;32;20125;-87
2023/03/13 08:31:34;;;;;;;4.43;2.75;;;;;;;11.92;59.86;99852.56;4408868;32;20456;-87
2023/03/13 08:33:59;;;;;;;;;;;;;;;11.95;59.85;99847.22;4437753;32;20173;-87
2023/03/13 08:36:30;;;;;;;10.45;2.65;;;;;;;11.99;59.86;99843.59;4435487;32;19989;-88
2023/03/13 08:38:58;;;;;;;5.80;2.70;;;;;;;12.09;59.86;99840.66;4422089;32;20081;-88
2023/03/13 08:41:25;;;;;;;6.90;2.85;;;;;;;12.04;59.86;99847.78;4432762;32;20505;-87
2023/03/13 08:43:54;;;;;;;10.18;3.05;;;;;;;12.26;59.87;99840.87;4423774;32;20109;-87
2023/03/13 08:46:19;;;;;;;6.37;2.45;;;;;;;12.24;59.87;99832.25;4423939;32;20128;-88
2023/03/13 08:48:49;;;;;;;5.03;2.65;;;;;;;12.29;59.88;99836.38;4432701;32;20123;-88
2023/03/13 08:51:14;;;;;;;7.40;3.17;;;;;;;12.50;59.89;99837.31;4428904;32;20477;-88
2023/03/13 08:53:41;;;;;;;4.97;2.58;;;;;;;12.60;59.89;99840.44;4439298;32;20105;-87
2023/03/13 08:56:07;;;;;;;7.47;3.20;;;;;;;12.67;59.90;99833.22;4426456;32;20116;-87
2023/03/13 08:58:33;;;;;;;7.30;2.95;;;;;;;12.68;59.90;99827.09;4426586;32;20116;-88
2023/03/13 09:01:02;;;;;;;7.80;3.95;;;;;;;12.79;59.90;99824.91;4439098;32;20431;-87
2023/03/13 09:03:28;;;;;;;8.60;3.03;;;;;;;12.81;59.91;99818.72;4423935;32;20189;-88
2023/03/13 09:05:55;;;;;;;4.75;2.30;;;;;;;12.93;59.91;99825.19;4425035;32;20401;-88
2023/03/13 09:08:20;;;;;;;5.65;2.90;;;;;;;13.01;59.91;99822.25;4420885;32;20058;-89
2023/03/13 09:10:45;;;;;;;5.90;2.92;;;;;;;13.30;59.92;99813.28;4426124;32;20173;-87
2023/03/13 09:13:11;;;;;;;5.45;3.37;;;;;;;13.33;59.93;99814.00;4439067;32;20449;-88
2023/03/13 09:15:36;;;;;;;6.22;3.22;;;;;;;13.43;59.94;99806.59;4426166;32;20444;-88
2023/03/13 09:18:02;;;;;;;5.20;3.08;;;;;;;13.59;59.95;99807.66;4417445;32;20427;-88
2023/03/13 09:20:27;;;;;;;5.00;2.40;;;;;;;13.58;59.95;99800.72;4424596;32;20124;-88
2023/03/13 09:22:53;;;;;;;4.43;2.97;;;;;;;13.81;59.96;99799.72;4430159;32;20113;-88
2023/03/13 09:25:18;;;;;;;6.68;3.08;;;;;;;13.99;59.97;99792.81;4433906;32;20149;-88
2023/03/13 09:27:44;;;;;;;5.82;3.03;;;;;;;14.05;59.97;99788.13;4410571;32;20426;-88
2023/03/13 09:30:10;;;;;;;6.65;3.40;;;;;;;14.13;59.98;99796.47;4423616;32;20142;-88
2023/03/13 09:32:35;;;;;;;14.07;4.78;;;;;;;14.32;59.99;99791.25;4410636;32;20169;-87
2023/03/13 09:35:00;;;;;;;6.15;3.20;;;;;;;14.33;59.99;99789.47;4434020;32;20439;-87
2023/03/13 09:37:26;;;;;;;15.30;7.50;;;;;;;14.40;60.00;99793.50;4424684;32;20122;-87
2023/03/13 09:39:51;;;;;;;7.57;4.00;;;;;;;14.53;60.00;99792.03;4427032;32;20158;-88
2023/03/13 09:42:23;;;;;;;7.93;3.50;;;;;;;14.80;60.02;99781.16;4432598;32;20385;-88
2023/03/13 09:44:58;;;;;;;6.55;3.00;;;;;;;14.82;60.01;99777.53;4423137;32;20495;-87
2023/03/13 09:47:27;;;;;;;9.57;3.67;;;;;;;14.95;60.02;99776.03;4407337;32;20153;-88
2023/03/13 09:49:53;;;;;;;5.55;3.37;;;;;;;14.94;60.02;99774.31;4439180;32;20474;-88
2023/03/13 09:52:25;;;;;;;9.82;4.80;;;;;;;15.03;60.03;99776.47;4425297;32;20424;-88
2023/03/13 09:55:04;;;;;;;8.15;3.20;;;;;;;15.20;60.03;99767.78;4422829;32;20085;-88
2023/03/13 09:57:32;;;;;;;6.57;3.03;;;;;;;15.36;60.05;99765.19;4423453;32;20101;-88
2023/03/13 10:00:10;;;;;;;6.80;2.90;;;;;;;15.55;60.07;99765.09;4424697;32;20489;-88
2023/03/13 10:02:35;;;;;;;4.90;2.62;;;;;;;15.56;60.06;99759.78;4423437;32;20123;-88
2023/03/13 10:05:07;;;;;;;4.97;3.00;;;;;;;15.77;60.06;99749.13;4419770;32;20115;-88
2023/03/13 10:07:33;;;;;;;10.95;7.90;;;;;;;15.95;60.08;99738.47;4438445;32;20104;-88
2023/03/13 10:10:01;;;;;;;6.87;3.62;;;;;;;16.05;60.08;99737.97;4438785;32;20442;-87
2023/03/13 10:12:28;;;;;;;5.82;3.40;;;;;;;16.05;60.08;99730.94;4425119;32;20114;-88
2023/03/13 10:15:00;;;;;;;5.97;2.92;;;;;;;16.19;60.09;99732.81;4418765;32;20192;-88
2023/03/13 10:17:30;;;;;;;8.48;2.60;;;;;;;16.31;60.10;99734.75;4423474;32;20162;-88
2023/03/13 10:19:59;;;;;;;4.65;3.05;;;;;;;16.40;60.11;99726.37;4423365;32;20129;-88
2023/03/13 10:22:25;;;;;;;4.47;2.87;;;;;;;16.45;60.11;99726.09;4401800;32;20102;-88
2023/03/13 10:24:58;;;;;;;6.20;3.35;;;;;;;16.58;60.11;99727.97;4423857;32;20090;-88
2023/03/13 10:27:23;;;;;;;6.72;2.97;;;;;;;16.77;60.12;99727.75;4436209;32;20110;-88
2023/03/13 10:29:50;;;;;;;4.72;3.00;;;;;;;16.95;60.13;99727.63;4422223;32;20450;-88
2023/03/13 10:32:16;;;;;;;5.07;3.08;;;;;;;16.97;60.13;99716.09;4438649;32;20148;-88
2023/03/13 10:34:47;;;;;;;4.40;2.87;;;;;;;17.05;60.14;99713.03;4423213;32;20220;-88
2023/03/13 10:37:14;;;;;;;5.10;2.80;;;;;;;17.34;60.16;99713.91;4417628;32;20099;-87
2023/03/13 10:39:40;;;;;;;4.20;2.83;;;;;;;17.37;60.17;99716.34;4427451;32;20192;-88
2023/03/13 10:42:27;;;;;;;6.35;2.90;;;;;;;17.56;60.16;99709.03;4423504;32;20157;-88
2023/03/13 10:45:00;;;;;;;7.47;3.95;;;;;;;17.70;60.17;99708.22;4413991;32;20081;-88
2023/03/13 10:47:25;;;;;;;5.03;2.75;;;;;;;17.69;60.17;99703.87;4438707;32;20081;-88
2023/03/13 10:49:54;;;;;;;6.43;3.25;;;;;;;17.53;60.17;99693.44;4415714;32;20159;-87
2023/03/13 10:52:46;;;;;;;7.53;3.33;;;;;;;17.56;60.17;99692.41;4438772;32;20100;-88
2023/03/13 10:55:15;;;;;;;6.00;3.17;;;;;;;17.64;60.17;99696.25;4425769;32;20086;-88
2023/03/13 10:57:43;;;;;;;5.20;2.80;;;;;;;17.73;60.17;99690.44;4425838;32;20430;-87
2023/03/13 11:00:37;;;;;;;6.95;3.53;;;;;;;17.78;60.18;99682.28;4438501;32;20171;-87
2023/03/13 11:03:17;;;;;;;3.95;2.95;;;;;;;17.94;60.19;99672.44;4439532;32;20123;-88
2023/03/13 11:05:43;;;;;;;7.15;3.65;;;;;;;18.08;60.20;99668.94;4435208;32;20378;-88
2023/03/13 11:08:27;;;;;;;5.90;3.47;;;;;;;18.10;60.19;99665.25;4416534;32;20107;-87
2023/03/13 11:10:59;;;;;;;4.82;3.40;;;;;;;18.29;60.21;99666.72;4423926;32;20105;-88
2023/03/13 11:13:35;;;;;;;6.57;3.15;;;;;;;18.39;60.22;99662.53;4434493;32;20109;-89
2023/03/13 11:16:16;;;;;;;5.20;3.20;;;;;;;18.48;60.22;99648.75;4423081;32;20089;-88
2023/03/13 11:19:05;;;;;;;4.75;3.40;;;;;;;18.31;60.21;99649.84;4423644;32;20114;-88
2023/03/13 11:21:33;;;;;;;4.82;3.17;;;;;;;18.33;60.20;99644.47;4412280;32;20161;-88
2023/03/13 11:24:05;;;;;;;5.78;3.33;;;;;;;18.19;60.20;99652.44;4424435;32;20106;-88
2023/03/13 11:26:38;;;;;;;7.37;3.15;;;;;;;18.23;60.21;99648.69;4422119;32;20112;-88
2023/03/13 11:29:25;;;;;;;9.75;3.60;;;;;;;18.33;60.21;99640.06;4438559;32;20085;-89
2023/03/13 11:31:55;;;;;;;7.28;3.17;;;;;;;18.47;60.22;99623.34;4433928;32;20442;-88
2023/03/13 11:34:26;;;;;;;4.97;3.03;;;;;;;18.55;60.22;99626.31;4420234;32;20135;-88
2023/03/13 11:37:11;;;;;;;7.75;3.47;;;;;;;18.76;60.24;99621.41;4433215;32;20465;-88
2023/03/13 11:39:45;;;;;;;5.97;3.78;;;;;;;18.84;60.24;99628.78;4423465;32;20150;-88